sensor_id;sensor_type;location;lat;lon;timestamp;P1;durP1;ratioP1;P2;durP2;ratioP2
52776;SDS011;38656;54.260;20.822;2023-10-31T00:01:53;39.65;;;25.13;;
52776;SDS011;38656;54.260;20.822;2023-10-31T00:04:20;32.08;;;20.95;;
52776;SDS011;38656;54.260;20.822;2023-10-31T00:06:46;43.78;;;25.92;;
52776;SDS011;38656;54.260;20.822;2023-10-31T00:09:13;103.78;;;37.28;;
52776;SDS011;38656;54.260;20.822;2023-10-31T00:11:40;81.60;;;34.22;;
52776;SDS011;38656;54.260;20.822;2023-10-31T00:14:08;59.25;;;28.92;;
52776;SDS011;38656;54.260;20.822;2023-10-31T00:16:34;70.95;;;32.20;;
52776;SDS011;38656;54.260;20.822;2023-10-31T00:19:00;75.18;;;31.77;;
52776;SDS011;38656;54.260;20.822;2023-10-31T00:21:26;72.20;;;31.30;;
52776;SDS011;38656;54.260;20.822;2023-10-31T00:23:52;37.72;;;23.15;;
52776;SDS011;38656;54.260;20.822;2023-10-31T00:26:18;35.17;;;19.85;;
52776;SDS011;38656;54.260;20.822;2023-10-31T00:28:45;37.95;;;19.48;;
52776;SDS011;38656;54.260;20.822;2023-10-31T00:31:11;27.58;;;21.02;;
52776;SDS011;38656;54.260;20.822;2023-10-31T00:33:38;27.83;;;19.27;;
52776;SDS011;38656;54.260;20.822;2023-10-31T00:36:04;22.33;;;16.48;;
52776;SDS011;38656;54.260;20.822;2023-10-31T00:38:31;18.95;;;16.13;;
52776;SDS011;38656;54.260;20.822;2023-10-31T00:40:57;18.95;;;15.55;;
52776;SDS011;38656;54.260;20.822;2023-10-31T00:43:24;24.25;;;15.95;;
52776;SDS011;38656;54.260;20.822;2023-10-31T00:45:50;16.60;;;14.23;;
52776;SDS011;38656;54.260;20.822;2023-10-31T00:48:16;17.38;;;14.43;;
52776;SDS011;38656;54.260;20.822;2023-10-31T00:50:43;19.13;;;14.05;;
52776;SDS011;38656;54.260;20.822;2023-10-31T00:53:09;18.23;;;14.10;;
52776;SDS011;38656;54.260;20.822;2023-10-31T00:55:35;17.58;;;13.50;;
52776;SDS011;38656;54.260;20.822;2023-10-31T00:58:02;20.67;;;13.50;;
52776;SDS011;38656;54.260;20.822;2023-10-31T01:00:28;15.80;;;12.30;;
52776;SDS011;38656;54.260;20.822;2023-10-31T01:02:55;14.32;;;10.60;;
52776;SDS011;38656;54.260;20.822;2023-10-31T01:05:21;13.98;;;10.40;;
52776;SDS011;38656;54.260;20.822;2023-10-31T01:07:47;15.13;;;11.32;;
52776;SDS011;38656;54.260;20.822;2023-10-31T01:10:14;17.60;;;10.02;;
52776;SDS011;38656;54.260;20.822;2023-10-31T01:12:40;13.02;;;10.95;;
52776;SDS011;38656;54.260;20.822;2023-10-31T01:15:06;14.23;;;10.90;;
52776;SDS011;38656;54.260;20.822;2023-10-31T01:17:33;13.05;;;9.60;;
52776;SDS011;38656;54.260;20.822;2023-10-31T01:19:59;13.30;;;10.43;;
52776;SDS011;38656;54.260;20.822;2023-10-31T01:22:25;11.45;;;10.30;;
52776;SDS011;38656;54.260;20.822;2023-10-31T01:24:51;10.88;;;9.77;;
52776;SDS011;38656;54.260;20.822;2023-10-31T01:27:18;13.63;;;9.85;;
52776;SDS011;38656;54.260;20.822;2023-10-31T01:29:44;11.88;;;9.90;;
52776;SDS011;38656;54.260;20.822;2023-10-31T01:32:10;13.98;;;10.57;;
52776;SDS011;38656;54.260;20.822;2023-10-31T01:34:37;10.95;;;9.70;;
52776;SDS011;38656;54.260;20.822;2023-10-31T01:37:03;13.82;;;10.82;;
52776;SDS011;38656;54.260;20.822;2023-10-31T01:39:29;14.02;;;10.23;;
52776;SDS011;38656;54.260;20.822;2023-10-31T01:41:56;12.15;;;10.23;;
52776;SDS011;38656;54.260;20.822;2023-10-31T01:44:22;13.15;;;10.60;;
52776;SDS011;38656;54.260;20.822;2023-10-31T01:46:48;16.95;;;9.88;;
52776;SDS011;38656;54.260;20.822;2023-10-31T01:49:14;13.10;;;10.65;;
52776;SDS011;38656;54.260;20.822;2023-10-31T01:51:41;11.90;;;10.10;;
52776;SDS011;38656;54.260;20.822;2023-10-31T01:54:08;12.45;;;10.45;;
52776;SDS011;38656;54.260;20.822;2023-10-31T01:56:35;18.25;;;12.25;;
52776;SDS011;38656;54.260;20.822;2023-10-31T01:59:02;13.40;;;10.75;;
52776;SDS011;38656;54.260;20.822;2023-10-31T02:01:31;13.93;;;11.00;;
52776;SDS011;38656;54.260;20.822;2023-10-31T02:04:01;11.85;;;10.07;;
52776;SDS011;38656;54.260;20.822;2023-10-31T02:06:27;11.23;;;9.80;;
52776;SDS011;38656;54.260;20.822;2023-10-31T02:08:55;14.75;;;10.73;;
52776;SDS011;38656;54.260;20.822;2023-10-31T02:11:22;13.02;;;10.32;;
52776;SDS011;38656;54.260;20.822;2023-10-31T02:13:48;11.82;;;10.43;;
52776;SDS011;38656;54.260;20.822;2023-10-31T02:16:14;15.02;;;10.55;;
52776;SDS011;38656;54.260;20.822;2023-10-31T02:18:40;10.35;;;9.43;;
52776;SDS011;38656;54.260;20.822;2023-10-31T02:21:07;13.40;;;11.15;;
52776;SDS011;38656;54.260;20.822;2023-10-31T02:23:33;13.57;;;10.95;;
52776;SDS011;38656;54.260;20.822;2023-10-31T02:25:59;14.85;;;12.15;;
52776;SDS011;38656;54.260;20.822;2023-10-31T02:28:25;13.25;;;11.40;;
52776;SDS011;38656;54.260;20.822;2023-10-31T02:30:53;16.35;;;13.32;;
52776;SDS011;38656;54.260;20.822;2023-10-31T02:33:22;17.80;;;15.25;;
52776;SDS011;38656;54.260;20.822;2023-10-31T02:35:48;20.45;;;12.18;;
52776;SDS011;38656;54.260;20.822;2023-10-31T02:38:15;17.42;;;14.50;;
52776;SDS011;38656;54.260;20.822;2023-10-31T02:40:41;15.50;;;12.60;;
52776;SDS011;38656;54.260;20.822;2023-10-31T02:43:07;15.45;;;13.95;;
52776;SDS011;38656;54.260;20.822;2023-10-31T02:45:33;17.48;;;15.65;;
52776;SDS011;38656;54.260;20.822;2023-10-31T02:47:59;17.25;;;15.55;;
52776;SDS011;38656;54.260;20.822;2023-10-31T02:50:26;15.60;;;13.90;;
52776;SDS011;38656;54.260;20.822;2023-10-31T02:52:52;16.50;;;14.23;;
52776;SDS011;38656;54.260;20.822;2023-10-31T02:55:18;15.18;;;13.43;;
52776;SDS011;38656;54.260;20.822;2023-10-31T02:57:44;18.30;;;13.40;;
52776;SDS011;38656;54.260;20.822;2023-10-31T03:00:10;16.58;;;12.90;;
52776;SDS011;38656;54.260;20.822;2023-10-31T03:02:37;16.75;;;14.18;;
52776;SDS011;38656;54.260;20.822;2023-10-31T03:05:03;15.45;;;13.90;;
52776;SDS011;38656;54.260;20.822;2023-10-31T03:07:29;17.23;;;13.20;;
52776;SDS011;38656;54.260;20.822;2023-10-31T03:09:56;18.13;;;13.65;;
52776;SDS011;38656;54.260;20.822;2023-10-31T03:12:22;15.93;;;12.93;;
52776;SDS011;38656;54.260;20.822;2023-10-31T03:14:49;17.83;;;13.13;;
52776;SDS011;38656;54.260;20.822;2023-10-31T03:17:15;16.05;;;13.95;;
52776;SDS011;38656;54.260;20.822;2023-10-31T03:19:44;15.00;;;13.45;;
52776;SDS011;38656;54.260;20.822;2023-10-31T03:22:10;19.98;;;14.63;;
52776;SDS011;38656;54.260;20.822;2023-10-31T03:24:37;15.68;;;14.15;;
52776;SDS011;38656;54.260;20.822;2023-10-31T03:27:03;17.77;;;13.88;;
52776;SDS011;38656;54.260;20.822;2023-10-31T03:29:29;19.40;;;14.50;;
52776;SDS011;38656;54.260;20.822;2023-10-31T03:31:55;16.55;;;14.32;;
52776;SDS011;38656;54.260;20.822;2023-10-31T03:34:21;15.52;;;12.75;;
52776;SDS011;38656;54.260;20.822;2023-10-31T03:36:47;24.02;;;14.00;;
52776;SDS011;38656;54.260;20.822;2023-10-31T03:39:13;17.02;;;15.43;;
52776;SDS011;38656;54.260;20.822;2023-10-31T03:41:40;19.73;;;16.00;;
52776;SDS011;38656;54.260;20.822;2023-10-31T03:44:07;17.52;;;15.85;;
52776;SDS011;38656;54.260;20.822;2023-10-31T03:46:33;20.83;;;16.95;;
52776;SDS011;38656;54.260;20.822;2023-10-31T03:48:59;21.67;;;19.42;;
52776;SDS011;38656;54.260;20.822;2023-10-31T03:51:26;21.83;;;19.48;;
52776;SDS011;38656;54.260;20.822;2023-10-31T03:53:52;24.77;;;19.60;;
52776;SDS011;38656;54.260;20.822;2023-10-31T03:56:18;22.52;;;19.65;;
52776;SDS011;38656;54.260;20.822;2023-10-31T03:58:44;23.45;;;21.00;;
52776;SDS011;38656;54.260;20.822;2023-10-31T04:01:11;21.70;;;19.27;;
52776;SDS011;38656;54.260;20.822;2023-10-31T04:03:37;23.30;;;19.33;;
52776;SDS011;38656;54.260;20.822;2023-10-31T04:06:03;20.17;;;18.35;;
52776;SDS011;38656;54.260;20.822;2023-10-31T04:08:29;21.88;;;19.75;;
52776;SDS011;38656;54.260;20.822;2023-10-31T04:10:55;19.90;;;17.90;;
52776;SDS011;38656;54.260;20.822;2023-10-31T04:13:21;21.85;;;18.40;;
52776;SDS011;38656;54.260;20.822;2023-10-31T04:15:48;21.80;;;18.50;;
52776;SDS011;38656;54.260;20.822;2023-10-31T04:18:14;20.67;;;17.80;;
52776;SDS011;38656;54.260;20.822;2023-10-31T04:20:40;19.92;;;17.23;;
52776;SDS011;38656;54.260;20.822;2023-10-31T04:23:06;22.88;;;18.02;;
52776;SDS011;38656;54.260;20.822;2023-10-31T04:25:33;20.13;;;18.02;;
52776;SDS011;38656;54.260;20.822;2023-10-31T04:27:59;21.38;;;18.83;;
52776;SDS011;38656;54.260;20.822;2023-10-31T04:30:25;17.92;;;16.13;;
52776;SDS011;38656;54.260;20.822;2023-10-31T04:32:52;27.73;;;19.33;;
52776;SDS011;38656;54.260;20.822;2023-10-31T04:35:18;19.52;;;17.58;;
52776;SDS011;38656;54.260;20.822;2023-10-31T04:37:45;19.42;;;17.33;;
52776;SDS011;38656;54.260;20.822;2023-10-31T04:40:11;21.08;;;18.90;;
52776;SDS011;38656;54.260;20.822;2023-10-31T04:42:41;19.70;;;17.73;;
52776;SDS011;38656;54.260;20.822;2023-10-31T04:45:08;21.00;;;18.38;;
52776;SDS011;38656;54.260;20.822;2023-10-31T04:47:35;20.85;;;18.85;;
52776;SDS011;38656;54.260;20.822;2023-10-31T04:50:01;22.27;;;19.05;;
52776;SDS011;38656;54.260;20.822;2023-10-31T04:52:27;20.67;;;18.23;;
52776;SDS011;38656;54.260;20.822;2023-10-31T04:54:53;21.92;;;19.13;;
52776;SDS011;38656;54.260;20.822;2023-10-31T04:57:19;21.00;;;19.00;;
52776;SDS011;38656;54.260;20.822;2023-10-31T04:59:45;21.15;;;19.15;;
52776;SDS011;38656;54.260;20.822;2023-10-31T05:02:12;21.10;;;19.20;;
52776;SDS011;38656;54.260;20.822;2023-10-31T05:04:38;22.00;;;19.90;;
52776;SDS011;38656;54.260;20.822;2023-10-31T05:07:05;21.77;;;19.70;;
52776;SDS011;38656;54.260;20.822;2023-10-31T05:09:31;21.10;;;19.00;;
52776;SDS011;38656;54.260;20.822;2023-10-31T05:11:57;24.35;;;21.45;;
52776;SDS011;38656;54.260;20.822;2023-10-31T05:14:24;23.38;;;21.00;;
52776;SDS011;38656;54.260;20.822;2023-10-31T05:16:50;22.70;;;20.50;;
52776;SDS011;38656;54.260;20.822;2023-10-31T05:19:16;23.35;;;21.17;;
52776;SDS011;38656;54.260;20.822;2023-10-31T05:21:42;21.13;;;18.88;;
52776;SDS011;38656;54.260;20.822;2023-10-31T05:24:08;23.80;;;21.40;;
52776;SDS011;38656;54.260;20.822;2023-10-31T05:26:34;28.15;;;23.80;;
52776;SDS011;38656;54.260;20.822;2023-10-31T05:29:01;27.48;;;24.73;;
52776;SDS011;38656;54.260;20.822;2023-10-31T05:31:27;25.00;;;22.40;;
52776;SDS011;38656;54.260;20.822;2023-10-31T05:33:53;23.42;;;21.15;;
52776;SDS011;38656;54.260;20.822;2023-10-31T05:36:23;23.50;;;20.92;;
52776;SDS011;38656;54.260;20.822;2023-10-31T05:38:50;24.70;;;21.95;;
52776;SDS011;38656;54.260;20.822;2023-10-31T05:41:16;22.67;;;20.58;;
52776;SDS011;38656;54.260;20.822;2023-10-31T05:43:43;23.15;;;20.83;;
52776;SDS011;38656;54.260;20.822;2023-10-31T05:46:10;24.00;;;21.50;;
52776;SDS011;38656;54.260;20.822;2023-10-31T05:48:38;22.35;;;20.08;;
52776;SDS011;38656;54.260;20.822;2023-10-31T05:51:18;22.33;;;20.05;;
52776;SDS011;38656;54.260;20.822;2023-10-31T05:53:45;23.00;;;20.48;;
52776;SDS011;38656;54.260;20.822;2023-10-31T05:56:13;23.35;;;20.30;;
52776;SDS011;38656;54.260;20.822;2023-10-31T05:58:41;23.83;;;21.42;;
52776;SDS011;38656;54.260;20.822;2023-10-31T06:01:07;23.98;;;21.80;;
52776;SDS011;38656;54.260;20.822;2023-10-31T06:03:34;27.23;;;22.77;;
52776;SDS011;38656;54.260;20.822;2023-10-31T06:06:00;24.77;;;22.27;;
52776;SDS011;38656;54.260;20.822;2023-10-31T06:08:26;21.05;;;18.92;;
52776;SDS011;38656;54.260;20.822;2023-10-31T06:10:54;25.83;;;23.42;;
52776;SDS011;38656;54.260;20.822;2023-10-31T06:13:21;23.00;;;20.52;;
52776;SDS011;38656;54.260;20.822;2023-10-31T06:15:50;22.27;;;20.08;;
52776;SDS011;38656;54.260;20.822;2023-10-31T06:18:16;24.25;;;22.30;;
52776;SDS011;38656;54.260;20.822;2023-10-31T06:20:42;22.45;;;20.42;;
52776;SDS011;38656;54.260;20.822;2023-10-31T06:23:09;25.02;;;22.65;;
52776;SDS011;38656;54.260;20.822;2023-10-31T06:25:35;23.88;;;21.42;;
52776;SDS011;38656;54.260;20.822;2023-10-31T06:28:01;25.02;;;22.58;;
52776;SDS011;38656;54.260;20.822;2023-10-31T06:30:27;23.15;;;20.88;;
52776;SDS011;38656;54.260;20.822;2023-10-31T06:32:53;24.10;;;20.48;;
52776;SDS011;38656;54.260;20.822;2023-10-31T06:35:19;22.83;;;20.48;;
52776;SDS011;38656;54.260;20.822;2023-10-31T06:37:49;24.25;;;21.27;;
52776;SDS011;38656;54.260;20.822;2023-10-31T06:40:16;22.83;;;20.58;;
52776;SDS011;38656;54.260;20.822;2023-10-31T06:42:42;22.10;;;19.85;;
52776;SDS011;38656;54.260;20.822;2023-10-31T06:45:08;22.77;;;19.67;;
52776;SDS011;38656;54.260;20.822;2023-10-31T06:47:35;22.55;;;20.08;;
52776;SDS011;38656;54.260;20.822;2023-10-31T06:50:01;21.45;;;18.42;;
52776;SDS011;38656;54.260;20.822;2023-10-31T06:52:27;20.20;;;17.98;;
52776;SDS011;38656;54.260;20.822;2023-10-31T06:54:54;20.05;;;18.08;;
52776;SDS011;38656;54.260;20.822;2023-10-31T06:57:21;21.58;;;19.35;;
52776;SDS011;38656;54.260;20.822;2023-10-31T06:59:47;20.23;;;17.73;;
52776;SDS011;38656;54.260;20.822;2023-10-31T07:02:14;21.30;;;17.77;;
52776;SDS011;38656;54.260;20.822;2023-10-31T07:04:40;21.13;;;18.52;;
52776;SDS011;38656;54.260;20.822;2023-10-31T07:07:06;21.25;;;18.98;;
52776;SDS011;38656;54.260;20.822;2023-10-31T07:09:32;21.92;;;18.85;;
52776;SDS011;38656;54.260;20.822;2023-10-31T07:11:59;20.10;;;18.02;;
52776;SDS011;38656;54.260;20.822;2023-10-31T07:14:25;25.25;;;19.60;;
52776;SDS011;38656;54.260;20.822;2023-10-31T07:16:51;20.70;;;17.85;;
52776;SDS011;38656;54.260;20.822;2023-10-31T07:19:17;20.00;;;17.65;;
52776;SDS011;38656;54.260;20.822;2023-10-31T07:21:44;22.55;;;20.23;;
52776;SDS011;38656;54.260;20.822;2023-10-31T07:24:10;22.50;;;20.23;;
52776;SDS011;38656;54.260;20.822;2023-10-31T07:26:36;20.10;;;18.27;;
52776;SDS011;38656;54.260;20.822;2023-10-31T07:29:03;19.35;;;17.48;;
52776;SDS011;38656;54.260;20.822;2023-10-31T07:31:29;18.13;;;16.08;;
52776;SDS011;38656;54.260;20.822;2023-10-31T07:33:55;21.98;;;18.25;;
52776;SDS011;38656;54.260;20.822;2023-10-31T07:36:21;18.45;;;16.50;;
52776;SDS011;38656;54.260;20.822;2023-10-31T07:38:48;26.35;;;16.55;;
52776;SDS011;38656;54.260;20.822;2023-10-31T07:41:14;17.90;;;16.10;;
52776;SDS011;38656;54.260;20.822;2023-10-31T07:43:41;15.30;;;13.48;;
52776;SDS011;38656;54.260;20.822;2023-10-31T07:46:07;19.02;;;13.30;;
52776;SDS011;38656;54.260;20.822;2023-10-31T07:48:33;15.90;;;12.00;;
52776;SDS011;38656;54.260;20.822;2023-10-31T07:50:59;20.05;;;12.90;;
52776;SDS011;38656;54.260;20.822;2023-10-31T07:53:25;16.45;;;13.60;;
52776;SDS011;38656;54.260;20.822;2023-10-31T07:55:51;12.70;;;11.18;;
52776;SDS011;38656;54.260;20.822;2023-10-31T07:58:18;16.30;;;12.63;;
52776;SDS011;38656;54.260;20.822;2023-10-31T08:00:44;16.67;;;12.18;;
52776;SDS011;38656;54.260;20.822;2023-10-31T08:03:10;15.23;;;10.90;;
52776;SDS011;38656;54.260;20.822;2023-10-31T08:05:36;16.73;;;10.93;;
52776;SDS011;38656;54.260;20.822;2023-10-31T08:08:02;15.48;;;11.43;;
52776;SDS011;38656;54.260;20.822;2023-10-31T08:10:29;14.95;;;9.80;;
52776;SDS011;38656;54.260;20.822;2023-10-31T08:12:55;13.23;;;9.48;;
52776;SDS011;38656;54.260;20.822;2023-10-31T08:15:21;15.50;;;9.13;;
52776;SDS011;38656;54.260;20.822;2023-10-31T08:17:47;12.75;;;9.10;;
52776;SDS011;38656;54.260;20.822;2023-10-31T08:20:13;13.30;;;8.25;;
52776;SDS011;38656;54.260;20.822;2023-10-31T08:22:39;11.02;;;8.25;;
52776;SDS011;38656;54.260;20.822;2023-10-31T08:25:07;20.95;;;8.57;;
52776;SDS011;38656;54.260;20.822;2023-10-31T08:27:34;12.60;;;9.18;;
52776;SDS011;38656;54.260;20.822;2023-10-31T08:30:00;12.32;;;8.98;;
52776;SDS011;38656;54.260;20.822;2023-10-31T08:32:27;9.40;;;7.82;;
52776;SDS011;38656;54.260;20.822;2023-10-31T08:34:53;11.65;;;8.48;;
52776;SDS011;38656;54.260;20.822;2023-10-31T08:37:21;11.77;;;8.18;;
52776;SDS011;38656;54.260;20.822;2023-10-31T08:39:47;13.60;;;7.35;;
52776;SDS011;38656;54.260;20.822;2023-10-31T08:42:14;17.02;;;7.15;;
52776;SDS011;38656;54.260;20.822;2023-10-31T08:44:40;7.75;;;6.95;;
52776;SDS011;38656;54.260;20.822;2023-10-31T08:47:06;11.05;;;7.47;;
52776;SDS011;38656;54.260;20.822;2023-10-31T08:49:33;18.42;;;7.47;;
52776;SDS011;38656;54.260;20.822;2023-10-31T08:51:59;10.95;;;6.65;;
52776;SDS011;38656;54.260;20.822;2023-10-31T08:54:27;10.27;;;7.35;;
52776;SDS011;38656;54.260;20.822;2023-10-31T08:56:53;12.05;;;6.90;;
52776;SDS011;38656;54.260;20.822;2023-10-31T08:59:19;12.27;;;6.93;;
52776;SDS011;38656;54.260;20.822;2023-10-31T09:01:45;10.88;;;6.95;;
52776;SDS011;38656;54.260;20.822;2023-10-31T09:04:11;11.43;;;6.50;;
52776;SDS011;38656;54.260;20.822;2023-10-31T09:06:37;11.85;;;5.80;;
52776;SDS011;38656;54.260;20.822;2023-10-31T09:09:04;9.55;;;6.38;;
52776;SDS011;38656;54.260;20.822;2023-10-31T09:11:30;10.18;;;5.72;;
52776;SDS011;38656;54.260;20.822;2023-10-31T09:13:56;12.70;;;6.70;;
52776;SDS011;38656;54.260;20.822;2023-10-31T09:16:22;9.98;;;6.45;;
52776;SDS011;38656;54.260;20.822;2023-10-31T09:18:48;7.80;;;7.00;;
52776;SDS011;38656;54.260;20.822;2023-10-31T09:21:14;10.48;;;6.95;;
52776;SDS011;38656;54.260;20.822;2023-10-31T09:23:41;14.07;;;6.38;;
52776;SDS011;38656;54.260;20.822;2023-10-31T09:26:07;10.05;;;5.28;;
52776;SDS011;38656;54.260;20.822;2023-10-31T09:28:33;9.85;;;5.72;;
52776;SDS011;38656;54.260;20.822;2023-10-31T09:31:04;8.43;;;4.25;;
52776;SDS011;38656;54.260;20.822;2023-10-31T09:33:30;6.55;;;4.22;;
52776;SDS011;38656;54.260;20.822;2023-10-31T09:35:56;8.82;;;4.82;;
52776;SDS011;38656;54.260;20.822;2023-10-31T09:38:22;10.43;;;5.28;;
52776;SDS011;38656;54.260;20.822;2023-10-31T09:40:49;7.63;;;5.57;;
52776;SDS011;38656;54.260;20.822;2023-10-31T09:43:15;16.42;;;6.00;;
52776;SDS011;38656;54.260;20.822;2023-10-31T09:45:42;6.75;;;4.60;;
52776;SDS011;38656;54.260;20.822;2023-10-31T09:48:10;6.47;;;4.93;;
52776;SDS011;38656;54.260;20.822;2023-10-31T09:50:36;12.80;;;5.57;;
52776;SDS011;38656;54.260;20.822;2023-10-31T09:53:03;10.82;;;5.22;;
52776;SDS011;38656;54.260;20.822;2023-10-31T09:55:31;10.05;;;4.70;;
52776;SDS011;38656;54.260;20.822;2023-10-31T09:57:57;11.90;;;4.78;;
52776;SDS011;38656;54.260;20.822;2023-10-31T10:00:24;10.60;;;5.10;;
52776;SDS011;38656;54.260;20.822;2023-10-31T10:02:50;14.73;;;4.72;;
52776;SDS011;38656;54.260;20.822;2023-10-31T10:05:16;6.78;;;4.50;;
52776;SDS011;38656;54.260;20.822;2023-10-31T10:07:44;8.75;;;4.65;;
52776;SDS011;38656;54.260;20.822;2023-10-31T10:10:11;9.15;;;4.43;;
52776;SDS011;38656;54.260;20.822;2023-10-31T10:12:37;9.18;;;4.30;;
52776;SDS011;38656;54.260;20.822;2023-10-31T10:15:06;7.88;;;4.65;;
52776;SDS011;38656;54.260;20.822;2023-10-31T10:17:33;12.10;;;5.07;;
52776;SDS011;38656;54.260;20.822;2023-10-31T10:20:08;15.98;;;5.47;;
52776;SDS011;38656;54.260;20.822;2023-10-31T10:22:39;9.40;;;4.75;;
52776;SDS011;38656;54.260;20.822;2023-10-31T10:25:07;7.07;;;4.82;;
52776;SDS011;38656;54.260;20.822;2023-10-31T10:27:36;11.32;;;5.43;;
52776;SDS011;38656;54.260;20.822;2023-10-31T10:30:03;12.35;;;4.95;;
52776;SDS011;38656;54.260;20.822;2023-10-31T10:32:30;8.23;;;4.68;;
52776;SDS011;38656;54.260;20.822;2023-10-31T10:34:56;8.93;;;5.05;;
52776;SDS011;38656;54.260;20.822;2023-10-31T10:37:22;12.43;;;5.00;;
52776;SDS011;38656;54.260;20.822;2023-10-31T10:39:51;9.23;;;4.78;;
52776;SDS011;38656;54.260;20.822;2023-10-31T10:42:27;6.50;;;4.30;;
52776;SDS011;38656;54.260;20.822;2023-10-31T10:45:04;16.70;;;4.45;;
52776;SDS011;38656;54.260;20.822;2023-10-31T10:47:33;9.65;;;4.43;;
52776;SDS011;38656;54.260;20.822;2023-10-31T10:50:01;9.45;;;4.43;;
52776;SDS011;38656;54.260;20.822;2023-10-31T10:52:29;9.50;;;4.55;;
52776;SDS011;38656;54.260;20.822;2023-10-31T10:55:20;8.18;;;5.18;;
52776;SDS011;38656;54.260;20.822;2023-10-31T10:58:00;10.38;;;5.57;;
52776;SDS011;38656;54.260;20.822;2023-10-31T11:00:30;9.70;;;6.22;;
52776;SDS011;38656;54.260;20.822;2023-10-31T11:02:57;11.80;;;6.95;;
52776;SDS011;38656;54.260;20.822;2023-10-31T11:05:24;7.80;;;4.63;;
52776;SDS011;38656;54.260;20.822;2023-10-31T11:07:51;9.93;;;4.38;;
52776;SDS011;38656;54.260;20.822;2023-10-31T11:10:18;7.88;;;4.03;;
52776;SDS011;38656;54.260;20.822;2023-10-31T11:12:44;7.75;;;5.32;;
52776;SDS011;38656;54.260;20.822;2023-10-31T11:15:12;9.93;;;5.05;;
52776;SDS011;38656;54.260;20.822;2023-10-31T11:17:44;14.48;;;10.52;;
52776;SDS011;38656;54.260;20.822;2023-10-31T11:20:13;26.40;;;18.80;;
52776;SDS011;38656;54.260;20.822;2023-10-31T11:22:41;29.33;;;19.90;;
52776;SDS011;38656;54.260;20.822;2023-10-31T11:25:18;21.30;;;17.00;;
52776;SDS011;38656;54.260;20.822;2023-10-31T11:27:45;11.02;;;7.40;;
52776;SDS011;38656;54.260;20.822;2023-10-31T11:30:21;10.07;;;6.30;;
52776;SDS011;38656;54.260;20.822;2023-10-31T11:32:52;8.05;;;6.35;;
52776;SDS011;38656;54.260;20.822;2023-10-31T11:35:21;6.85;;;5.10;;
52776;SDS011;38656;54.260;20.822;2023-10-31T11:38:00;11.57;;;6.20;;
52776;SDS011;38656;54.260;20.822;2023-10-31T11:40:28;14.75;;;11.88;;
52776;SDS011;38656;54.260;20.822;2023-10-31T11:42:58;23.63;;;19.17;;
52776;SDS011;38656;54.260;20.822;2023-10-31T11:45:35;14.40;;;8.63;;
52776;SDS011;38656;54.260;20.822;2023-10-31T11:48:02;10.05;;;7.72;;
52776;SDS011;38656;54.260;20.822;2023-10-31T11:50:32;18.88;;;13.55;;
52776;SDS011;38656;54.260;20.822;2023-10-31T11:55:27;12.18;;;10.93;;
52776;SDS011;38656;54.260;20.822;2023-10-31T11:57:53;12.88;;;11.60;;
52776;SDS011;38656;54.260;20.822;2023-10-31T12:00:20;32.92;;;29.00;;
52776;SDS011;38656;54.260;20.822;2023-10-31T12:02:57;47.25;;;43.15;;
52776;SDS011;38656;54.260;20.822;2023-10-31T12:05:26;24.83;;;22.88;;
52776;SDS011;38656;54.260;20.822;2023-10-31T12:07:53;25.90;;;23.20;;
52776;SDS011;38656;54.260;20.822;2023-10-31T12:10:24;16.52;;;10.73;;
52776;SDS011;38656;54.260;20.822;2023-10-31T12:12:55;15.05;;;10.82;;
52776;SDS011;38656;54.260;20.822;2023-10-31T12:15:22;9.52;;;8.38;;
52776;SDS011;38656;54.260;20.822;2023-10-31T12:17:48;11.45;;;8.52;;
52776;SDS011;38656;54.260;20.822;2023-10-31T12:20:15;23.25;;;20.95;;
52776;SDS011;38656;54.260;20.822;2023-10-31T12:22:42;19.52;;;17.52;;
52776;SDS011;38656;54.260;20.822;2023-10-31T12:25:09;94.68;;;61.60;;
52776;SDS011;38656;54.260;20.822;2023-10-31T12:30:12;85.95;;;49.75;;
52776;SDS011;38656;54.260;20.822;2023-10-31T12:32:42;122.60;;;59.80;;
52776;SDS011;38656;54.260;20.822;2023-10-31T12:35:10;311.25;;;125.28;;
52776;SDS011;38656;54.260;20.822;2023-10-31T12:37:45;218.27;;;91.88;;
52776;SDS011;38656;54.260;20.822;2023-10-31T12:40:19;109.70;;;56.17;;
52776;SDS011;38656;54.260;20.822;2023-10-31T12:42:46;171.82;;;72.80;;
52776;SDS011;38656;54.260;20.822;2023-10-31T12:45:14;202.73;;;83.93;;
52776;SDS011;38656;54.260;20.822;2023-10-31T12:47:42;69.10;;;46.85;;
52776;SDS011;38656;54.260;20.822;2023-10-31T12:50:09;78.43;;;47.08;;
52776;SDS011;38656;54.260;20.822;2023-10-31T12:52:53;134.10;;;77.32;;
52776;SDS011;38656;54.260;20.822;2023-10-31T12:55:21;128.35;;;72.85;;
52776;SDS011;38656;54.260;20.822;2023-10-31T12:57:49;25.40;;;19.95;;
52776;SDS011;38656;54.260;20.822;2023-10-31T13:00:17;86.63;;;64.30;;
52776;SDS011;38656;54.260;20.822;2023-10-31T13:02:49;34.03;;;28.88;;
52776;SDS011;38656;54.260;20.822;2023-10-31T13:05:26;38.15;;;32.90;;
52776;SDS011;38656;54.260;20.822;2023-10-31T13:07:54;37.58;;;23.83;;
52776;SDS011;38656;54.260;20.822;2023-10-31T13:10:22;8.15;;;7.45;;
52776;SDS011;38656;54.260;20.822;2023-10-31T13:12:50;94.30;;;56.13;;
52776;SDS011;38656;54.260;20.822;2023-10-31T13:15:18;39.50;;;26.88;;
52776;SDS011;38656;54.260;20.822;2023-10-31T13:17:49;22.20;;;19.85;;
52776;SDS011;38656;54.260;20.822;2023-10-31T13:20:16;4.97;;;4.47;;
52776;SDS011;38656;54.260;20.822;2023-10-31T13:22:46;4.65;;;4.20;;
52776;SDS011;38656;54.260;20.822;2023-10-31T13:25:13;27.48;;;24.92;;
52776;SDS011;38656;54.260;20.822;2023-10-31T13:27:41;9.80;;;8.73;;
52776;SDS011;38656;54.260;20.822;2023-10-31T13:30:09;14.93;;;13.32;;
52776;SDS011;38656;54.260;20.822;2023-10-31T13:32:42;21.88;;;19.17;;
52776;SDS011;38656;54.260;20.822;2023-10-31T13:35:08;37.42;;;33.90;;
52776;SDS011;38656;54.260;20.822;2023-10-31T13:37:35;16.73;;;15.35;;
52776;SDS011;38656;54.260;20.822;2023-10-31T13:40:02;31.23;;;28.58;;
52776;SDS011;38656;54.260;20.822;2023-10-31T13:42:29;17.52;;;16.05;;
52776;SDS011;38656;54.260;20.822;2023-10-31T13:44:55;15.98;;;14.48;;
52776;SDS011;38656;54.260;20.822;2023-10-31T13:47:21;7.78;;;6.88;;
52776;SDS011;38656;54.260;20.822;2023-10-31T13:49:47;13.50;;;9.75;;
52776;SDS011;38656;54.260;20.822;2023-10-31T13:52:14;13.35;;;12.20;;
52776;SDS011;38656;54.260;20.822;2023-10-31T13:54:40;23.45;;;21.17;;
52776;SDS011;38656;54.260;20.822;2023-10-31T13:57:08;14.63;;;13.18;;
52776;SDS011;38656;54.260;20.822;2023-10-31T13:59:35;19.85;;;17.88;;
52776;SDS011;38656;54.260;20.822;2023-10-31T14:02:01;8.65;;;7.95;;
52776;SDS011;38656;54.260;20.822;2023-10-31T14:04:28;7.25;;;6.55;;
52776;SDS011;38656;54.260;20.822;2023-10-31T14:06:54;8.52;;;7.68;;
52776;SDS011;38656;54.260;20.822;2023-10-31T14:09:20;13.98;;;12.68;;
52776;SDS011;38656;54.260;20.822;2023-10-31T14:11:46;13.40;;;12.23;;
52776;SDS011;38656;54.260;20.822;2023-10-31T14:14:12;10.23;;;8.05;;
52776;SDS011;38656;54.260;20.822;2023-10-31T14:16:39;16.23;;;14.60;;
52776;SDS011;38656;54.260;20.822;2023-10-31T14:19:06;23.08;;;21.38;;